createdAt,value
2022-12-04T00:01:22.443Z,77518.00
2022-12-04T00:03:53.632Z,77501.38
2022-12-04T00:06:23.708Z,77513.84
2022-12-04T00:08:52.374Z,77513.84
2022-12-04T00:11:23.793Z,77509.69
2022-12-04T00:13:51.861Z,77509.69
2022-12-04T00:16:22.425Z,77509.69
2022-12-04T00:18:50.634Z,77515.91
2022-12-04T00:21:20.253Z,77505.53
2022-12-04T00:23:48.463Z,77509.69
2022-12-04T00:26:19.235Z,77507.59
2022-12-04T00:28:49.504Z,77509.69
2022-12-04T00:31:20.258Z,77513.84
2022-12-04T00:33:48.376Z,77518.00
2022-12-04T00:36:19.002Z,77518.00
2022-12-04T00:38:47.632Z,77518.00
2022-12-04T00:41:18.293Z,77509.69
2022-12-04T00:43:47.663Z,77511.75
2022-12-04T00:46:16.678Z,77513.84
2022-12-04T00:48:45.140Z,77509.69
2022-12-04T00:51:15.193Z,77518.00
2022-12-04T00:53:43.006Z,77513.84
2022-12-04T00:56:14.285Z,77526.31
2022-12-04T00:58:43.012Z,77518.00
2022-12-04T01:01:15.110Z,77499.28
2022-12-04T01:03:43.687Z,77495.13
2022-12-04T01:06:19.807Z,77522.16
2022-12-04T01:08:48.178Z,77540.88
2022-12-04T01:11:16.881Z,77536.72
2022-12-04T01:13:45.051Z,77538.78
2022-12-04T01:16:19.177Z,77522.16
2022-12-04T01:18:47.249Z,77526.31
2022-12-04T01:21:15.657Z,77513.84
2022-12-04T01:23:44.032Z,77497.22
2022-12-04T01:26:13.611Z,77499.28
2022-12-04T01:28:41.647Z,77474.34
2022-12-04T01:31:13.196Z,77476.41
2022-12-04T01:33:43.318Z,77490.97
2022-12-04T01:36:13.719Z,77476.41
2022-12-04T01:38:42.216Z,77472.25
2022-12-04T01:41:12.472Z,77472.25
2022-12-04T01:43:41.312Z,77484.72
2022-12-04T01:46:10.539Z,77476.41
2022-12-04T01:48:45.156Z,77484.72
2022-12-04T01:51:18.616Z,77480.56
2022-12-04T01:53:52.761Z,77476.41
2022-12-04T01:56:23.912Z,77474.34
2022-12-04T01:58:55.617Z,77476.41
2022-12-04T02:04:21.525Z,77493.03
2022-12-04T02:06:49.794Z,77493.03
2022-12-04T02:09:23.021Z,77468.09
2022-12-04T02:12:04.282Z,77472.25
2022-12-04T02:14:40.070Z,77478.50
2022-12-04T02:17:17.611Z,77480.56
2022-12-04T02:20:03.631Z,77480.56
2022-12-04T02:22:51.536Z,77490.97
2022-12-04T02:25:25.903Z,77484.72
2022-12-04T02:28:06.019Z,77476.41
2022-12-04T02:30:38.460Z,77463.94
2022-12-04T02:33:12.741Z,77478.50
2022-12-04T02:35:45.312Z,77484.72
2022-12-04T02:38:22.170Z,77482.66
2022-12-04T02:40:56.480Z,77486.81
2022-12-04T02:43:31.209Z,77501.38
2022-12-04T02:46:02.404Z,77503.44
2022-12-04T02:48:34.284Z,77490.97
2022-12-04T02:51:05.409Z,77482.66
2022-12-04T02:53:37.231Z,77501.38
2022-12-04T02:56:10.003Z,77490.97
2022-12-04T02:58:43.403Z,77480.56
2022-12-04T03:01:23.965Z,77486.81
2022-12-04T03:03:58.972Z,77480.56
2022-12-04T03:06:30.709Z,77482.66
2022-12-04T03:09:04.367Z,77503.44
2022-12-04T03:11:36.873Z,77513.84
2022-12-04T03:14:14.851Z,77509.69
2022-12-04T03:16:44.183Z,77515.91
2022-12-04T03:19:17.558Z,77509.69
2022-12-04T03:21:51.028Z,77513.84
2022-12-04T03:24:23.446Z,77518.00
2022-12-04T03:26:57.259Z,77524.25
2022-12-04T03:29:32.776Z,77515.91
2022-12-04T03:32:07.792Z,77538.78
2022-12-04T03:34:44.281Z,77540.88
2022-12-04T03:37:17.070Z,77530.47
2022-12-04T03:39:54.092Z,77534.63
2022-12-04T03:42:26.664Z,77522.16
2022-12-04T03:45:02.493Z,77534.63
2022-12-04T03:47:35.919Z,77530.47
2022-12-04T03:50:09.566Z,77522.16
2022-12-04T03:52:45.872Z,77509.69
2022-12-04T03:55:27.811Z,77513.84
2022-12-04T03:58:01.010Z,77509.69
2022-12-04T04:00:33.178Z,77509.69
2022-12-04T04:03:07.689Z,77513.84
2022-12-04T04:05:37.951Z,77513.84
2022-12-04T04:08:22.833Z,77522.16
2022-12-04T04:10:53.843Z,77518.00
2022-12-04T04:13:45.141Z,77522.16
2022-12-04T04:16:37.275Z,77509.69
2022-12-04T04:19:22.457Z,77520.09
2022-12-04T04:22:10.732Z,77515.91
2022-12-04T04:24:44.077Z,77530.47
2022-12-04T04:27:12.470Z,77518.00
2022-12-04T04:29:40.503Z,77518.00
2022-12-04T04:32:14.985Z,77522.16
2022-12-04T04:34:51.478Z,77513.84
2022-12-04T04:37:28.570Z,77513.84
2022-12-04T04:40:02.698Z,77515.91
2022-12-04T04:42:35.982Z,77515.91
2022-12-04T04:45:08.575Z,77509.69
2022-12-04T04:47:44.755Z,77505.53
2022-12-04T04:50:14.541Z,77501.38
2022-12-04T04:52:47.313Z,77497.22
2022-12-04T04:55:17.195Z,77497.22
2022-12-04T04:57:45.508Z,77488.88
2022-12-04T05:00:16.079Z,77503.44
2022-12-04T05:02:45.767Z,77497.22
2022-12-04T05:05:14.269Z,77501.38
2022-12-04T05:07:42.345Z,77507.59
2022-12-04T05:10:11.323Z,77518.00
2022-12-04T05:12:39.362Z,77505.53
2022-12-04T05:15:08.355Z,77513.84
2022-12-04T05:17:36.771Z,77513.84
2022-12-04T05:20:07.051Z,77518.00
2022-12-04T05:22:36.743Z,77518.00
2022-12-04T05:25:05.406Z,77522.16
2022-12-04T05:27:33.716Z,77513.84
2022-12-04T05:30:01.519Z,77511.75
2022-12-04T05:32:30.813Z,77513.84
2022-12-04T05:34:59.150Z,77518.00
2022-12-04T05:37:28.788Z,77524.25
2022-12-04T05:39:56.729Z,77524.25
2022-12-04T05:42:24.912Z,77522.16
2022-12-04T05:44:52.686Z,77526.31
2022-12-04T05:47:21.080Z,77509.69
2022-12-04T05:49:49.007Z,77518.00
2022-12-04T05:52:17.081Z,77513.84
2022-12-04T05:54:46.320Z,77501.38
2022-12-04T05:57:14.384Z,77499.28
2022-12-04T05:59:42.177Z,77493.03
2022-12-04T06:02:10.302Z,77497.22
2022-12-04T06:04:38.397Z,77488.88
2022-12-04T06:07:07.126Z,77480.56
2022-12-04T06:09:35.048Z,77497.22
2022-12-04T06:12:05.547Z,77505.53
2022-12-04T06:14:39.047Z,77501.38
2022-12-04T06:17:08.190Z,77501.38
2022-12-04T06:19:35.927Z,77501.38
2022-12-04T06:22:03.956Z,77493.03
2022-12-04T06:24:31.986Z,77493.03
2022-12-04T06:29:50.038Z,77488.88
2022-12-04T06:32:21.685Z,77480.56
2022-12-04T06:34:52.976Z,77466.00
2022-12-04T06:37:22.453Z,77468.09
2022-12-04T06:39:50.548Z,77476.41
2022-12-04T06:42:18.688Z,77486.81
2022-12-04T06:44:46.690Z,77486.81
2022-12-04T06:47:16.364Z,77476.41
2022-12-04T06:49:46.113Z,77480.56
2022-12-04T06:52:14.336Z,77474.34
2022-12-04T06:54:42.515Z,77459.78
2022-12-04T07:00:13.727Z,77466.00
2022-12-04T07:02:43.535Z,77463.94
2022-12-04T07:05:12.163Z,77463.94
2022-12-04T07:07:40.273Z,77472.25
2022-12-04T07:10:09.081Z,77463.94
2022-12-04T07:12:37.236Z,77468.09
2022-12-04T07:15:05.970Z,77455.63
2022-12-04T07:17:34.331Z,77463.94
2022-12-04T07:20:03.464Z,77455.63
2022-12-04T07:22:31.859Z,77459.78
2022-12-04T07:24:59.759Z,77459.78
2022-12-04T07:27:27.790Z,77455.63
2022-12-04T07:29:55.951Z,77449.38
2022-12-04T07:32:24.464Z,77459.78
2022-12-04T07:34:52.592Z,77447.28
2022-12-04T07:37:21.963Z,77447.28
2022-12-04T07:39:52.759Z,77443.13
2022-12-04T07:42:24.263Z,77428.56
2022-12-04T07:44:52.633Z,77426.50
2022-12-04T07:47:20.623Z,77430.66
2022-12-04T07:49:48.439Z,77426.50
2022-12-04T07:52:16.756Z,77438.97
2022-12-04T07:54:45.900Z,77430.66
2022-12-04T07:57:13.892Z,77430.66
2022-12-04T07:59:42.107Z,77426.50
2022-12-04T08:02:10.197Z,77422.34
2022-12-04T08:04:38.462Z,77422.34
2022-12-04T08:07:06.739Z,77420.25
2022-12-04T08:09:34.567Z,77426.50
2022-12-04T08:12:04.154Z,77443.13
2022-12-04T08:14:32.065Z,77443.13
2022-12-04T08:17:00.085Z,77443.13
2022-12-04T08:19:28.177Z,77434.81
2022-12-04T08:21:56.379Z,77438.97
2022-12-04T08:24:24.386Z,77426.50
2022-12-04T08:26:52.507Z,77432.75
2022-12-04T08:29:21.923Z,77434.81
2022-12-04T08:31:50.041Z,77434.81
2022-12-04T08:34:17.927Z,77443.13
2022-12-04T08:36:46.183Z,77441.06
2022-12-04T08:39:13.970Z,77451.44
2022-12-04T08:41:42.108Z,77438.97
2022-12-04T08:44:10.419Z,77432.75
2022-12-04T08:46:40.300Z,77416.09
2022-12-04T08:49:08.224Z,77432.75
2022-12-04T08:51:36.738Z,77424.41
2022-12-04T08:54:06.899Z,77428.56
2022-12-04T08:56:37.461Z,77430.66
2022-12-04T08:59:05.770Z,77418.19
2022-12-04T09:01:33.923Z,77414.03
2022-12-04T09:04:03.239Z,77416.09
2022-12-04T09:06:31.709Z,77426.50
2022-12-04T09:08:59.419Z,77426.50
2022-12-04T09:11:30.192Z,77430.66
2022-12-04T09:13:58.324Z,77438.97
2022-12-04T09:16:27.393Z,77418.19
2022-12-04T09:18:55.980Z,77405.69
2022-12-04T09:21:26.686Z,77414.03
2022-12-04T09:23:54.644Z,77414.03
2022-12-04T09:26:25.466Z,77397.38
2022-12-04T09:28:54.458Z,77401.53
2022-12-04T09:31:24.147Z,77393.22
2022-12-04T09:33:52.777Z,77376.59
2022-12-04T09:36:21.516Z,77372.44
2022-12-04T09:38:52.444Z,77372.44
2022-12-04T09:41:39.593Z,77364.09
2022-12-04T09:44:14.612Z,77372.44
2022-12-04T09:46:51.027Z,77351.63
2022-12-04T09:49:24.190Z,77349.56
2022-12-04T09:51:55.484Z,77349.56
2022-12-04T09:54:28.405Z,77364.09
2022-12-04T09:57:02.023Z,77364.09
2022-12-04T09:59:33.114Z,77355.78
2022-12-04T10:02:11.355Z,77355.78
2022-12-04T10:04:39.848Z,77351.63
2022-12-04T10:07:17.419Z,77343.31
2022-12-04T10:09:54.291Z,77330.84
2022-12-04T10:12:28.336Z,77335.00
2022-12-04T10:15:18.334Z,77326.69
2022-12-04T10:18:01.995Z,77326.69
2022-12-04T10:20:47.825Z,77310.03
2022-12-04T10:23:26.655Z,77295.47
2022-12-04T10:25:56.695Z,77289.25
2022-12-04T10:28:32.346Z,77289.25
2022-12-04T10:31:03.465Z,77293.41
2022-12-04T10:33:39.058Z,77280.94
2022-12-04T10:36:08.205Z,77268.44
2022-12-04T10:38:42.399Z,77264.28
2022-12-04T10:41:19.512Z,77255.97
2022-12-04T10:43:49.639Z,77255.97
2022-12-04T10:46:23.826Z,77251.81
2022-12-04T10:48:56.018Z,77247.66
2022-12-04T10:51:24.149Z,77251.81
2022-12-04T10:53:52.817Z,77241.41
2022-12-04T10:56:24.431Z,77239.34
2022-12-04T10:59:01.450Z,77235.19
2022-12-04T11:01:31.269Z,77239.34
2022-12-04T11:04:03.045Z,77243.50
2022-12-04T11:06:32.076Z,77231.00
2022-12-04T11:09:02.000Z,77214.38
2022-12-04T11:11:34.378Z,77222.69
2022-12-04T11:14:05.202Z,77218.53
2022-12-04T11:16:39.195Z,77222.69
2022-12-04T11:19:22.924Z,77222.69
2022-12-04T11:21:51.134Z,77214.38
2022-12-04T11:24:23.749Z,77212.31
2022-12-04T11:26:53.684Z,77212.31
2022-12-04T11:29:29.666Z,77214.38
2022-12-04T11:32:04.091Z,77201.91
2022-12-04T11:34:39.940Z,77206.06
2022-12-04T11:37:20.514Z,77183.19
2022-12-04T11:39:49.787Z,77179.03
2022-12-04T11:42:24.351Z,77176.94
2022-12-04T11:44:55.423Z,77168.63
2022-12-04T11:47:26.331Z,77166.56
2022-12-04T11:50:03.357Z,77168.63
2022-12-04T11:52:46.375Z,77168.63
2022-12-04T11:55:23.879Z,77160.31
2022-12-04T11:58:16.562Z,77139.53
2022-12-04T12:00:57.069Z,77139.53
2022-12-04T12:03:32.841Z,77139.53
2022-12-04T12:06:26.916Z,77122.88
2022-12-04T12:09:09.628Z,77143.69
2022-12-04T12:11:42.426Z,77135.34
2022-12-04T12:14:17.268Z,77133.28
2022-12-04T12:16:58.566Z,77131.19
2022-12-04T12:19:45.508Z,77118.72
2022-12-04T12:22:26.110Z,77110.41
2022-12-04T12:25:04.655Z,77122.88
2022-12-04T12:27:47.350Z,77131.19
2022-12-04T12:30:20.560Z,77112.47
2022-12-04T12:33:01.869Z,77104.16
2022-12-04T12:35:35.008Z,77089.59
2022-12-04T12:38:07.846Z,77085.44
2022-12-04T12:40:38.326Z,77064.66
2022-12-04T12:43:12.250Z,77079.22
2022-12-04T12:45:48.157Z,77072.97
2022-12-04T12:48:29.420Z,77081.28
2022-12-04T12:51:28.637Z,77081.28
2022-12-04T12:53:53.786Z,77085.44
2022-12-04T12:56:31.536Z,77075.06
2022-12-04T12:59:05.143Z,77066.75
2022-12-04T13:01:43.466Z,77056.34
2022-12-04T13:04:16.714Z,77058.41
2022-12-04T13:06:46.848Z,77075.06
2022-12-04T13:09:25.424Z,77077.13
2022-12-04T13:11:59.652Z,77068.81
2022-12-04T13:14:28.212Z,77068.81
2022-12-04T13:17:02.133Z,77066.75
2022-12-04T13:19:33.775Z,77064.66
2022-12-04T13:22:12.849Z,77068.81
2022-12-04T13:25:07.039Z,77077.13
2022-12-04T13:27:47.505Z,77077.13
2022-12-04T13:30:20.075Z,77083.38
2022-12-04T13:33:19.290Z,77079.22
2022-12-04T13:36:09.916Z,77085.44
2022-12-04T13:38:57.919Z,77093.78
2022-12-04T13:41:29.541Z,77095.84
2022-12-04T13:44:02.815Z,77102.09
2022-12-04T13:46:35.634Z,77122.88
2022-12-04T13:49:26.311Z,77135.34
2022-12-04T13:51:55.950Z,77143.69
2022-12-04T13:54:30.770Z,77147.84
2022-12-04T13:57:17.540Z,77172.78
2022-12-04T13:59:45.846Z,77172.78
2022-12-04T14:02:27.682Z,77176.94
2022-12-04T14:05:00.668Z,77164.47
2022-12-04T14:07:33.166Z,77162.41
2022-12-04T14:10:04.605Z,77164.47
2022-12-04T14:12:36.199Z,77170.72
2022-12-04T14:15:07.563Z,77185.28
2022-12-04T14:17:37.744Z,77185.28
2022-12-04T14:20:10.150Z,77191.50
2022-12-04T14:22:44.283Z,77185.28
2022-12-04T14:25:42.565Z,77197.75
2022-12-04T14:28:23.728Z,77193.59
2022-12-04T14:31:04.709Z,77189.44
2022-12-04T14:33:37.706Z,77193.59
2022-12-04T14:36:11.651Z,77201.91
2022-12-04T14:38:40.687Z,77210.22
2022-12-04T14:41:08.752Z,77210.22
2022-12-04T14:43:41.052Z,77201.91
2022-12-04T14:46:17.007Z,77197.75
2022-12-04T14:48:55.007Z,77216.47
2022-12-04T14:51:31.379Z,77210.22
2022-12-04T14:54:09.676Z,77212.31
2022-12-04T14:57:01.953Z,77210.22
2022-12-04T14:59:40.877Z,77210.22
2022-12-04T15:02:13.408Z,77218.53
2022-12-04T15:04:46.136Z,77218.53
2022-12-04T15:07:23.873Z,77210.22
2022-12-04T15:10:11.891Z,77201.91
2022-12-04T15:12:47.519Z,77222.69
2022-12-04T15:15:21.888Z,77231.00
2022-12-04T15:18:00.826Z,77224.78
2022-12-04T15:20:36.084Z,77220.63
2022-12-04T15:23:13.893Z,77218.53
2022-12-04T15:25:46.766Z,77226.84
2022-12-04T15:28:18.822Z,77239.34
2022-12-04T15:30:50.077Z,77237.25
2022-12-04T15:33:21.765Z,77245.56
2022-12-04T15:35:55.210Z,77255.97
2022-12-04T15:38:25.019Z,77235.19
2022-12-04T15:40:56.013Z,77231.00
2022-12-04T15:43:28.429Z,77231.00
2022-12-04T15:45:56.976Z,77224.78
2022-12-04T15:48:27.051Z,77224.78
2022-12-04T15:51:01.561Z,77226.84
2022-12-04T15:53:33.586Z,77220.63
2022-12-04T15:56:04.851Z,77222.69
2022-12-04T15:58:34.387Z,77226.84
2022-12-04T16:01:05.159Z,77239.34
2022-12-04T16:03:38.421Z,77243.50
2022-12-04T16:06:19.534Z,77241.41
2022-12-04T16:08:50.748Z,77235.19
2022-12-04T16:11:31.385Z,77228.94
2022-12-04T16:14:17.433Z,77226.84
2022-12-04T16:16:48.095Z,77226.84
2022-12-04T16:19:19.251Z,77214.38
2022-12-04T16:21:47.732Z,77218.53
2022-12-04T16:24:16.974Z,77235.19
2022-12-04T16:26:45.117Z,77247.66
2022-12-04T16:29:13.063Z,77231.00
2022-12-04T16:31:41.287Z,77224.78
2022-12-04T16:34:10.260Z,77222.69
2022-12-04T16:36:38.639Z,77239.34
2022-12-04T16:39:06.942Z,77247.66
2022-12-04T16:41:36.544Z,77258.06
2022-12-04T16:44:04.783Z,77264.28
2022-12-04T16:46:33.125Z,77262.22
2022-12-04T16:49:07.084Z,77264.28
2022-12-04T16:51:37.581Z,77264.28
2022-12-04T16:54:05.629Z,77260.13
2022-12-04T16:56:33.726Z,77264.28
2022-12-04T16:59:05.559Z,77268.44
2022-12-04T17:01:40.921Z,77264.28
2022-12-04T17:04:09.018Z,77264.28
2022-12-04T17:06:37.124Z,77268.44
2022-12-04T17:09:05.115Z,77293.41
2022-12-04T17:11:33.491Z,77285.09
2022-12-04T17:14:02.738Z,77289.25
2022-12-04T17:16:33.977Z,77276.75
2022-12-04T17:19:02.055Z,77270.53
2022-12-04T17:21:30.156Z,77272.59
2022-12-04T17:23:58.176Z,77276.75
2022-12-04T17:26:27.247Z,77289.25
2022-12-04T17:28:55.196Z,77276.75
2022-12-04T17:31:25.314Z,77272.59
2022-12-04T17:33:55.172Z,77283.00
2022-12-04T17:36:26.082Z,77291.31
2022-12-04T17:38:55.378Z,77299.63
2022-12-04T17:41:23.865Z,77303.81
2022-12-04T17:43:51.800Z,77314.19
2022-12-04T17:46:24.368Z,77305.88
2022-12-04T17:48:56.557Z,77287.16
2022-12-04T17:51:25.915Z,77301.72
2022-12-04T17:53:53.747Z,77301.72
2022-12-04T17:56:23.953Z,77299.63
2022-12-04T17:58:52.519Z,77305.88
2022-12-04T18:01:23.615Z,77305.88
2022-12-04T18:03:52.172Z,77307.97
2022-12-04T18:06:23.883Z,77312.13
2022-12-04T18:08:52.447Z,77318.34
2022-12-04T18:11:22.422Z,77318.34
2022-12-04T18:13:50.756Z,77316.28
2022-12-04T18:16:18.882Z,77312.13
2022-12-04T18:18:47.488Z,77320.44
2022-12-04T18:21:16.063Z,77318.34
2022-12-04T18:23:45.826Z,77318.34
2022-12-04T18:26:15.711Z,77330.84
2022-12-04T18:28:43.793Z,77335.00
2022-12-04T18:31:12.302Z,77320.44
2022-12-04T18:33:42.339Z,77326.69
2022-12-04T18:36:15.828Z,77330.84
2022-12-04T18:38:46.000Z,77326.69
2022-12-04T18:41:15.544Z,77316.28
2022-12-04T18:43:45.237Z,77328.75
2022-12-04T18:46:17.013Z,77335.00
2022-12-04T18:48:46.645Z,77322.50
2022-12-04T18:51:17.039Z,77324.59
2022-12-04T18:53:46.555Z,77335.00
2022-12-04T18:56:15.856Z,77343.31
2022-12-04T18:58:44.635Z,77339.16
2022-12-04T19:01:16.065Z,77335.00
2022-12-04T19:03:44.195Z,77332.91
2022-12-04T19:06:13.111Z,77339.16
2022-12-04T19:08:43.440Z,77339.16
2022-12-04T19:11:15.135Z,77339.16
2022-12-04T19:13:43.071Z,77353.72
2022-12-04T19:16:12.789Z,77355.78
2022-12-04T19:18:42.032Z,77355.78
2022-12-04T19:21:10.380Z,77372.44
2022-12-04T19:23:38.587Z,77372.44
2022-12-04T19:26:07.171Z,77359.94
2022-12-04T19:28:37.005Z,77335.00
2022-12-04T19:31:05.616Z,77364.09
2022-12-04T19:33:33.540Z,77370.34
2022-12-04T19:36:03.671Z,77347.47
2022-12-04T19:38:32.460Z,77335.00
2022-12-04T19:41:05.781Z,77339.16
2022-12-04T19:43:33.639Z,77349.56
2022-12-04T19:46:03.337Z,77339.16
2022-12-04T19:48:31.413Z,77339.16
2022-12-04T19:51:03.906Z,77330.84
2022-12-04T19:53:35.071Z,77337.06
2022-12-04T19:56:09.688Z,77343.31
2022-12-04T19:58:37.828Z,77335.00
2022-12-04T20:01:11.330Z,77347.47
2022-12-04T20:03:39.714Z,77347.47
2022-12-04T20:06:12.018Z,77347.47
2022-12-04T20:08:40.117Z,77343.31
2022-12-04T20:11:11.620Z,77355.78
2022-12-04T20:13:40.178Z,77353.72
2022-12-04T20:16:12.222Z,77355.78
2022-12-04T20:18:41.448Z,77359.94
2022-12-04T20:21:11.831Z,77349.56
2022-12-04T20:23:40.636Z,77347.47
2022-12-04T20:26:12.329Z,77347.47
2022-12-04T20:28:40.505Z,77347.47
2022-12-04T20:31:15.793Z,77351.63
2022-12-04T20:33:44.091Z,77355.78
2022-12-04T20:36:12.959Z,77357.88
2022-12-04T20:38:41.025Z,77343.31
2022-12-04T20:41:10.622Z,77335.00
2022-12-04T20:43:38.446Z,77347.47
2022-12-04T20:46:16.756Z,77341.22
2022-12-04T20:48:48.556Z,77343.31
2022-12-04T20:51:17.421Z,77347.47
2022-12-04T20:53:45.991Z,77343.31
2022-12-04T20:56:14.495Z,77347.47
2022-12-04T20:58:42.491Z,77347.47
2022-12-04T21:01:11.911Z,77343.31
2022-12-04T21:03:41.346Z,77351.63
2022-12-04T21:06:13.957Z,77343.31
2022-12-04T21:08:57.625Z,77364.09
2022-12-04T21:11:27.836Z,77359.94
2022-12-04T21:14:14.559Z,77353.72
2022-12-04T21:16:43.243Z,77349.56
2022-12-04T21:19:14.892Z,77351.63
2022-12-04T21:21:43.367Z,77357.88
2022-12-04T21:24:15.124Z,77353.72
2022-12-04T21:26:43.732Z,77359.94
2022-12-04T21:29:11.931Z,77366.19
2022-12-04T21:31:40.568Z,77364.09
2022-12-04T21:34:11.502Z,77359.94
2022-12-04T21:36:41.127Z,77364.09
2022-12-04T21:39:09.403Z,77368.28
2022-12-04T21:41:55.003Z,77364.09
2022-12-04T21:44:23.111Z,77368.28
2022-12-04T21:46:51.792Z,77355.78
2022-12-04T21:49:20.404Z,77353.72
2022-12-04T21:51:58.640Z,77351.63
2022-12-04T21:54:27.174Z,77347.47
2022-12-04T21:56:56.414Z,77343.31
2022-12-04T21:59:24.421Z,77359.94
2022-12-04T22:01:53.629Z,77351.63
2022-12-04T22:04:22.027Z,77343.31
2022-12-04T22:06:51.711Z,77355.78
2022-12-04T22:09:19.579Z,77368.28
2022-12-04T22:11:47.871Z,77372.44
2022-12-04T22:14:15.775Z,77364.09
2022-12-04T22:16:43.931Z,77372.44
2022-12-04T22:19:12.851Z,77376.59
2022-12-04T22:21:41.178Z,77380.75
2022-12-04T22:24:11.423Z,77372.44
2022-12-04T22:26:40.198Z,77359.94
2022-12-04T22:29:34.299Z,77366.19
2022-12-04T22:31:56.447Z,77357.88
2022-12-04T22:34:24.216Z,77359.94
2022-12-04T22:36:52.271Z,77368.28
2022-12-04T22:39:21.644Z,77380.75
2022-12-04T22:41:49.648Z,77368.28
2022-12-04T22:44:17.370Z,77368.28
2022-12-04T22:46:45.724Z,77378.66
2022-12-04T22:49:13.548Z,77380.75
2022-12-04T22:51:41.580Z,77374.50
2022-12-04T22:54:14.301Z,77380.75
2022-12-04T22:56:44.201Z,77355.78
2022-12-04T22:59:12.461Z,77355.78
2022-12-04T23:01:40.734Z,77357.88
2022-12-04T23:04:08.528Z,77362.03
2022-12-04T23:06:37.029Z,77355.78
2022-12-04T23:09:07.108Z,77357.88
2022-12-04T23:11:35.743Z,77366.19
2022-12-04T23:14:09.501Z,77368.28
2022-12-04T23:16:38.843Z,77372.44
2022-12-04T23:19:07.540Z,77368.28
2022-12-04T23:21:35.926Z,77368.28
2022-12-04T23:24:03.911Z,77364.09
2022-12-04T23:26:34.544Z,77376.59
2022-12-04T23:29:02.644Z,77372.44
2022-12-04T23:31:33.250Z,77368.28
2022-12-04T23:34:02.452Z,77370.34
2022-12-04T23:36:30.768Z,77391.16
2022-12-04T23:38:59.096Z,77389.06
2022-12-04T23:41:28.991Z,77380.75
2022-12-04T23:43:57.952Z,77384.91
2022-12-04T23:46:28.995Z,77386.97
2022-12-04T23:48:58.836Z,77376.59
2022-12-04T23:51:27.296Z,77376.59
2022-12-04T23:53:55.132Z,77364.09
2022-12-04T23:56:25.984Z,77368.28
2022-12-04T23:58:55.547Z,77376.59
